Date,TemperatureHighF,TemperatureAvgF,TemperatureLowF,DewpointHighF,DewpointAvgF,DewpointLowF,HumidityHigh,HumidityAvg,HumidityLow,PressureMaxIn,PressureMinIn,WindSpeedMaxMPH,WindSpeedAvgMPH,GustSpeedMaxMPH,PrecipitationSumIn
2013-1-1,54,45,39,39,33,28,87,64,41,30.24,30.18,9,1,0,0.00
2013-1-2,58,46,37,36,31,24,83,57,30,30.21,30.11,5,0,0,0.00
2013-1-3,60,46,37,41,36,31,88,70,49,30.24,30.13,2,0,0,0.00
2013-1-4,60,47,37,39,35,31,91,67,34,30.26,30.15,3,0,0,0.00
2013-1-5,54,47,40,48,43,37,95,85,70,30.23,30.04,4,0,0,0.37
2013-1-6,52,46,42,45,42,41,95,87,70,30.16,30.03,7,1,0,0.03
2013-1-7,60,48,40,47,43,39,97,85,56,30.24,30.13,3,0,0,0.00
2013-1-8,65,50,42,49,44,41,97,81,50,30.26,30.13,3,0,0,0.00
2013-1-9,53,46,39,49,42,34,95,84,64,30.14,29.99,4,0,0,0.00
2013-1-10,54,43,37,36,33,29,89,69,40,30.19,30.06,4,0,0,0.00
2013-1-11,54,44,38,39,33,29,91,68,46,30.25,30.12,1,0,0,0.00
2013-1-12,53,43,34,36,28,21,91,59,30,30.25,30.14,2,0,0,0.00
2013-1-13,54,42,31,30,22,12,66,47,31,30.26,30.18,4,0,0,0.00
2013-1-14,54,42,32,26,18,10,59,41,23,30.40,30.22,6,0,0,0.00
2013-1-15,57,44,34,29,26,21,77,53,26,30.47,30.39,4,0,0,0.00
2013-1-16,60,46,36,36,31,24,85,59,32,30.42,30.25,4,0,0,0.00
2013-1-17,66,51,40,38,30,22,84,49,21,30.26,30.14,8,1,0,0.00
2013-1-18,66,53,40,40,29,18,82,45,21,30.22,30.12,9,1,0,0.00
2013-1-19,66,52,38,36,29,18,87,46,20,30.23,30.14,5,1,0,0.00
2013-1-20,67,51,38,39,30,23,83,50,21,30.22,30.12,9,1,0,0.00
2013-1-21,68,50,39,38,33,25,77,53,28,30.17,30.07,4,0,0,0.00
2013-1-22,68,52,42,43,39,32,88,64,34,30.10,30.00,2,0,0,0.00
2013-1-23,55,52,49,52,47,41,96,84,70,30.08,29.94,6,0,0,0.18
2013-1-24,61,55,51,51,49,48,93,83,67,30.18,30.04,5,0,0,0.00
2013-1-25,69,57,50,54,51,49,96,82,55,30.18,30.04,4,0,0,0.00
2013-1-26,61,52,43,51,43,36,96,74,40,30.07,29.99,3,0,0,0.00
2013-1-27,58,47,40,39,36,30,88,68,34,30.17,30.06,3,0,0,0.00
2013-1-28,61,48,40,42,38,34,88,68,40,30.28,30.16,4,0,0,0.00
2013-1-29,60,49,41,43,40,37,87,71,43,30.36,30.27,4,0,0,0.00
2013-1-30,66,51,42,46,42,39,92,73,39,30.34,30.26,0,0,0,0.00
2013-1-31,68,53,42,46,43,40,93,70,43,30.28,30.17,3,0,0,0.00
2013-2-1,69,54,44,47,44,41,92,71,41,30.22,30.11,5,0,0,0.00
2013-2-2,60,51,45,48,46,43,94,85,62,30.29,30.20,3,0,0,0.00
2013-2-3,59,49,42,45,43,40,94,79,53,30.25,30.14,4,0,0,0.00
2013-2-4,58,49,43,48,46,41,96,89,67,30.17,30.07,3,0,0,0.00
2013-2-5,61,50,43,48,43,40,91,77,57,30.15,30.06,4,0,0,0.00
2013-2-6,60,49,41,44,40,38,91,75,48,30.20,30.12,4,0,0,0.00
2013-2-7,57,49,43,46,42,37,92,77,54,30.17,30.00,4,0,0,0.08
2013-2-8,56,47,40,43,39,33,94,75,51,30.02,29.93,4,0,0,0.02
2013-2-9,62,48,38,34,30,22,78,54,24,30.09,29.98,2,0,0,0.00
2013-2-10,62,48,38,40,35,31,86,65,35,30.11,30.03,3,0,0,0.00
2013-2-11,67,51,41,45,34,24,93,56,22,30.23,30.06,3,0,0,0.00
2013-2-12,63,50,42,46,42,37,95,78,43,30.35,30.23,3,0,0,0.00
2013-2-13,61,49,42,48,44,39,96,83,50,30.34,30.23,2,0,0,0.00
2013-2-14,70,54,43,49,44,42,97,73,37,30.24,30.16,2,0,0,0.00
2013-2-15,74,62,48,43,36,30,80,41,26,30.26,30.18,12,1,0,0.00
2013-2-16,72,56,46,48,44,36,91,67,40,30.23,30.06,3,0,0,0.00
2013-2-17,62,51,44,47,44,41,95,78,47,30.06,29.98,2,0,0,0.00
2013-2-18,55,49,44,45,40,36,91,72,54,30.04,29.96,7,1,0,0.00
2013-2-19,50,45,39,44,38,33,92,77,57,29.97,29.75,5,0,0,0.32
2013-2-20,61,47,37,40,35,32,86,66,37,30.06,29.84,2,0,0,0.00
2013-2-21,64,49,38,38,35,27,89,63,26,30.16,30.05,3,0,0,0.00
2013-2-22,63,50,40,45,40,35,89,71,36,30.25,30.16,5,0,0,0.00
2013-2-23,62,52,44,47,37,28,91,62,28,30.26,30.17,4,0,0,0.00
2013-2-24,65,52,43,41,30,19,77,47,18,30.25,30.18,4,0,0,0.00
2013-2-25,65,52,42,45,42,38,93,72,43,30.26,30.18,6,0,0,0.00
2013-2-26,70,52,40,41,34,21,81,54,16,30.21,30.15,2,0,0,0.00
2013-2-27,66,52,41,45,40,32,87,67,35,30.36,30.20,3,0,0,0.00
2013-2-28,66,54,46,51,47,43,93,79,54,30.45,30.36,4,0,0,0.00
2013-3-1,76,57,46,55,48,45,97,76,34,30.43,30.24,4,0,0,0.00
2013-3-2,70,57,49,52,49,46,90,76,54,30.24,30.07,1,0,0,0.00
2013-3-3,63,53,49,49,47,45,92,81,58,30.10,30.06,6,1,0,0.00
2013-3-4,58,50,44,45,44,41,89,80,60,30.15,30.06,4,0,0,0.00
2013-3-5,59,50,42,46,41,39,91,73,51,30.06,29.83,6,1,0,0.19
2013-3-6,58,51,43,48,43,39,94,75,51,30.07,29.84,9,1,0,0.22
2013-3-7,60,50,42,46,42,36,94,77,45,29.99,29.85,3,0,0,0.02
2013-3-8,64,51,44,45,40,36,92,69,40,30.04,29.83,3,0,0,0.00
2013-3-9,66,52,41,47,42,38,92,70,40,30.31,30.04,3,0,0,0.00
2013-3-10,66,53,43,48,43,34,93,71,33,30.34,30.27,4,0,0,0.00
2013-3-11,68,53,42,48,45,39,93,75,41,30.27,30.12,3,0,0,0.00
2013-3-12,68,55,47,51,48,45,96,81,54,30.16,30.09,3,0,0,0.00
2013-3-13,78,58,45,54,50,44,97,77,41,30.16,30.07,4,0,0,0.00
2013-3-14,62,54,48,52,49,43,96,83,65,30.17,30.09,2,0,0,0.00
2013-3-15,68,55,46,50,47,43,95,77,46,30.13,30.05,2,0,0,0.00
2013-3-16,69,57,48,50,47,43,95,72,47,30.12,30.04,3,0,0,0.00
2013-3-17,67,54,44,45,42,37,88,66,38,30.15,30.05,3,0,0,0.00
2013-3-18,64,52,44,48,44,41,93,75,51,30.14,30.04,3,0,0,0.00
2013-3-19,67,54,46,48,45,39,93,74,37,30.15,30.05,3,0,0,0.11
2013-3-20,60,54,50,55,51,44,96,90,65,30.14,30.06,3,0,0,0.07
2013-3-21,65,53,41,50,43,39,95,73,44,30.12,30.02,5,0,0,0.00
2013-3-22,70,55,40,43,35,23,86,54,18,30.11,30.03,3,0,0,0.00
2013-3-23,69,55,42,42,35,26,80,51,24,30.14,30.06,3,0,0,0.00
2013-3-24,67,52,44,47,44,40,90,75,47,30.09,30.00,3,0,0,0.00
2013-3-25,58,51,46,45,44,42,91,77,61,30.03,29.95,7,1,0,0.00
2013-3-26,62,53,47,47,45,42,86,74,56,30.00,29.95,5,0,0,0.00
2013-3-27,62,54,47,53,49,44,95,83,65,30.01,29.95,3,0,0,0.00
2013-3-28,67,57,52,54,52,49,95,84,60,30.09,30.00,2,0,0,0.00
2013-3-29,77,58,48,55,50,47,97,79,41,30.09,30.02,7,0,0,0.00
2013-3-30,69,57,52,54,52,49,95,84,53,30.07,29.99,2,0,0,0.05
2013-3-31,68,58,52,57,53,48,96,83,48,30.06,30.00,6,0,0,0.26
2013-4-1,66,57,51,56,52,48,97,85,56,30.16,30.04,1,0,0,0.44
2013-4-2,65,54,47,53,49,46,96,86,62,30.17,30.11,4,0,0,0.00
2013-4-3,73,56,51,55,50,48,92,82,49,30.14,30.01,3,0,0,0.00
2013-4-4,63,56,51,58,53,49,96,92,79,30.12,29.98,4,1,0,0.40
2013-4-5,64,58,54,56,53,51,96,85,62,30.18,30.11,2,0,0,0.01
2013-4-6,63,57,53,55,52,50,95,86,68,30.20,30.15,5,0,0,0.00
2013-4-7,64,56,52,54,50,46,95,81,61,30.17,29.86,4,1,0,0.04
2013-4-8,72,56,46,49,38,23,89,54,16,30.02,29.81,10,1,0,0.00
2013-4-9,80,63,47,44,36,25,74,43,13,30.10,30.03,4,0,0,0.00
2013-4-10,80,67,56,52,47,37,82,51,29,30.17,30.06,3,0,0,0.00
2013-4-11,72,59,48,51,47,45,90,66,38,30.08,29.85,3,0,0,0.00
2013-4-12,71,56,47,50,46,44,94,72,41,29.91,29.84,3,0,0,0.00
2013-4-13,71,58,49,49,44,39,86,64,35,29.90,29.83,4,0,0,0.00
2013-4-14,68,55,44,47,39,30,84,58,28,29.93,29.87,3,0,0,0.00
2013-4-15,64,52,43,47,39,33,91,63,34,29.95,29.86,5,1,0,0.00
2013-4-16,70,55,41,40,34,27,77,49,20,30.15,29.95,5,0,0,0.00
2013-4-17,74,60,49,42,30,20,64,36,13,30.26,30.16,5,0,0,0.00
2013-4-18,75,60,47,47,41,34,87,53,24,30.26,30.20,3,0,0,0.00
2013-4-19,71,58,47,52,48,44,93,69,40,30.23,30.07,3,0,0,0.00
2013-4-20,78,62,49,48,46,41,90,61,27,30.10,30.01,4,0,0,0.00
2013-4-21,78,62,48,52,47,43,90,64,29,30.04,29.95,3,0,0,0.00
2013-4-22,84,64,52,51,47,42,87,57,25,29.96,29.88,3,0,0,0.00
2013-4-23,80,60,48,50,42,23,92,60,12,29.93,29.87,4,0,0,0.00
2013-4-24,62,54,49,49,47,46,91,78,61,29.96,29.84,4,0,0,0.00
2013-4-25,64,56,51,50,48,46,88,77,58,30.14,29.95,4,0,0,0.00
2013-4-26,64,55,51,49,47,46,87,76,59,30.23,30.12,2,0,0,0.00
2013-4-27,65,55,49,50,48,46,88,78,59,30.23,30.09,3,0,0,0.00
2013-4-28,72,60,50,52,50,47,91,71,47,30.09,29.89,5,0,0,0.00
2013-4-29,79,64,51,57,51,49,94,66,36,29.90,29.78,2,0,0,0.00
2013-4-30,74,62,51,53,48,29,94,65,32,29.85,29.80,2,0,0,0.00
2013-5-1,84,66,54,49,35,17,81,38,9,30.09,29.84,2,0,0,0.00
2013-5-2,92,68,51,51,41,23,82,45,9,30.15,30.09,2,0,0,0.00
2013-5-3,82,65,53,52,44,34,86,51,22,30.09,29.81,3,0,0,0.00
2013-5-4,74,60,50,55,50,45,90,73,36,29.81,29.61,5,0,0,0.00
2013-5-5,68,60,55,51,48,46,83,66,46,29.81,29.61,5,0,0,0.00
2013-5-6,71,62,54,53,50,48,82,68,46,29.98,29.81,2,0,0,0.00
2013-5-7,72,61,55,56,53,51,92,76,52,30.05,29.96,5,0,0,0.00
2013-5-8,64,56,53,52,50,48,91,80,60,30.14,30.05,4,0,0,0.00
2013-5-9,65,57,53,51,49,48,85,76,60,30.18,30.11,4,1,0,0.00
2013-5-10,65,56,51,52,50,48,91,81,63,30.20,30.13,5,1,0,0.00
2013-5-11,71,59,52,55,52,50,92,78,53,30.17,30.08,4,0,0,0.00
2013-5-12,70,60,50,56,52,49,96,78,59,30.15,30.05,4,0,0,0.00
2013-5-13,72,62,53,56,52,50,91,73,54,30.10,29.96,5,0,0,0.00
2013-5-14,70,60,53,51,49,45,87,68,47,30.01,29.93,6,1,0,0.00
2013-5-15,68,58,51,51,48,46,84,70,49,30.05,30.00,5,1,0,0.00
2013-5-16,67,59,53,55,52,47,87,78,62,30.03,29.98,5,1,0,0.00
2013-5-17,68,58,50,51,48,45,92,72,45,30.09,29.97,5,1,0,0.00
2013-5-18,75,62,50,52,49,46,90,66,38,30.13,30.07,4,0,0,0.00
2013-5-19,79,64,50,53,48,41,91,62,26,30.12,29.99,3,0,0,0.00
2013-5-20,81,63,51,56,50,46,92,67,31,30.00,29.95,3,0,0,0.00
2013-5-21,74,61,51,49,46,39,87,61,33,29.99,29.91,4,0,0,0.00
2013-5-22,70,58,46,42,35,24,70,45,20,30.02,29.91,5,1,0,0.00
2013-5-23,69,57,46,46,42,38,82,59,34,30.01,29.91,4,0,0,0.00
2013-5-24,69,57,47,48,45,39,92,66,36,30.00,29.95,6,1,0,0.00
2013-5-25,67,57,49,49,46,44,86,68,44,30.05,29.95,6,1,0,0.00
2013-5-26,66,58,53,53,52,49,93,79,62,30.14,30.05,4,1,0,0.00
2013-5-27,63,57,51,57,53,48,93,86,72,30.13,29.99,3,0,0,0.00
2013-5-28,71,61,55,58,54,48,96,79,56,30.01,29.93,3,0,0,0.02
2013-5-29,75,62,54,55,51,45,88,71,39,29.98,29.91,3,0,0,0.00
2013-5-30,75,62,48,52,47,43,94,63,35,29.99,29.93,3,0,0,0.00
2013-5-31,79,64,50,53,49,44,91,63,30,30.01,29.91,3,0,0,0.00
2013-6-1,79,65,52,54,51,49,90,63,38,29.95,29.79,2,0,0,0.00
2013-6-2,70,61,54,53,51,49,89,71,53,29.80,29.70,3,0,0,0.00
2013-6-3,66,59,54,52,51,50,89,76,59,29.87,29.73,5,0,0,0.00
2013-6-4,66,58,55,53,51,50,86,78,60,29.98,29.86,4,1,0,0.00
2013-6-5,64,57,53,52,50,49,89,79,62,30.00,29.95,4,1,0,0.00
2013-6-6,67,58,52,53,51,50,92,80,58,29.96,29.89,5,1,0,0.00
2013-6-7,74,60,54,56,53,51,92,78,53,29.90,29.75,3,0,0,0.00
2013-6-8,68,60,54,55,53,51,93,80,61,29.83,29.73,4,0,0,0.00
2013-6-9,65,59,56,56,55,53,93,86,70,29.89,29.82,4,1,0,0.00
2013-6-10,70,61,56,54,52,50,92,74,54,29.96,29.82,5,1,0,0.00
2013-6-11,70,62,56,54,52,50,86,72,53,29.99,29.90,4,0,0,0.00
2013-6-12,77,63,50,52,50,46,94,65,36,29.99,29.91,3,0,0,0.00
2013-6-13,80,63,48,51,48,40,91,62,26,30.09,29.99,3,0,0,0.00
2013-6-14,77,63,52,55,50,47,92,67,35,30.00,29.86,2,0,0,0.00
2013-6-15,66,57,52,52,50,49,88,78,59,30.01,29.84,4,1,0,0.00
2013-6-16,72,61,53,54,51,49,89,70,52,30.09,30.00,4,0,0,0.00
2013-6-17,75,62,52,56,53,50,92,73,50,30.09,30.04,4,0,0,0.00
2013-6-18,69,61,54,54,52,47,91,72,48,30.04,29.99,5,1,0,0.00
2013-6-19,76,62,50,51,47,43,88,61,32,30.05,30.00,4,0,0,0.00
2013-6-20,78,63,51,52,48,41,90,61,27,30.02,29.95,4,0,0,0.00
2013-6-21,76,63,51,53,50,46,90,65,36,29.98,29.93,3,0,0,0.00
2013-6-22,78,64,52,55,51,48,90,66,38,29.94,29.86,2,0,0,0.00
2013-6-23,63,59,56,60,56,53,93,90,84,29.89,29.82,4,0,0,0.00
2013-6-24,62,58,56,59,56,54,95,91,82,29.90,29.79,2,0,0,0.02
2013-6-25,72,64,58,66,62,57,96,93,78,29.98,29.87,5,0,0,0.27
2013-6-26,78,68,61,65,61,59,96,80,56,30.05,29.97,2,0,0,0.02
2013-6-27,82,68,59,63,59,57,96,75,47,30.08,30.02,2,0,0,0.00
2013-6-28,79,67,57,63,58,55,96,73,49,30.04,29.93,3,0,0,0.00
2013-6-29,81,68,57,62,57,55,95,69,41,29.93,29.82,2,0,0,0.00
2013-6-30,76,67,57,58,57,54,92,71,53,29.85,29.79,3,0,0,0.00
2013-7-1,79,66,57,61,56,54,94,73,47,29.86,29.81,5,0,0,0.00
2013-7-2,74,64,58,59,57,55,92,79,58,29.94,29.84,3,0,0,0.00
2013-7-3,82,66,58,60,57,55,94,75,45,29.93,29.80,3,0,0,0.00
2013-7-4,76,68,60,60,56,52,91,69,51,29.80,29.71,2,0,0,0.00
2013-7-5,69,61,56,53,52,51,86,73,56,29.79,29.72,6,2,0,0.00
2013-7-6,67,59,56,54,52,51,87,79,62,29.82,29.76,4,1,0,0.00
2013-7-7,69,61,56,55,53,52,87,76,59,29.88,29.79,4,0,0,0.00
2013-7-8,68,60,56,55,54,52,90,79,61,29.99,29.87,3,0,0,0.00
2013-7-9,74,62,54,57,54,53,95,79,53,30.03,29.95,3,0,0,0.00
2013-7-10,68,60,54,55,53,52,92,81,60,30.01,29.93,5,0,0,0.00
2013-7-11,66,58,53,54,52,51,92,81,63,29.96,29.91,5,1,0,0.00
2013-7-12,66,59,53,54,52,50,90,78,62,29.95,29.90,3,0,0,0.00
2013-7-13,70,59,51,55,52,49,95,81,56,29.97,29.90,4,0,0,0.02
2013-7-14,67,62,55,54,53,52,90,74,62,30.01,29.92,4,1,0,0.00
2013-7-15,65,57,52,54,52,50,92,84,65,29.94,29.86,4,0,0,0.00
2013-7-16,69,60,56,57,53,50,88,78,61,30.03,29.87,5,1,0,0.00
2013-7-17,69,62,56,56,54,53,88,77,60,30.09,30.02,4,0,0,0.00
2013-7-18,69,60,55,55,54,52,91,79,61,30.07,29.97,3,0,0,0.00
2013-7-19,70,61,55,56,53,52,89,78,61,29.96,29.86,5,0,0,0.00
2013-7-20,68,59,54,55,53,52,92,80,61,29.87,29.78,4,0,0,0.00
2013-7-21,67,58,55,55,53,52,92,82,64,29.90,29.78,3,0,0,0.00
2013-7-22,67,60,55,57,56,53,95,87,68,29.97,29.89,4,0,0,0.00
2013-7-23,71,62,57,58,56,54,93,80,60,30.01,29.95,2,0,0,0.00
2013-7-24,72,63,57,58,56,54,95,79,57,29.99,29.93,3,0,0,0.00
2013-7-25,69,60,54,55,54,52,92,80,60,30.04,29.94,3,0,0,0.00
2013-7-26,69,60,55,57,54,52,93,83,63,30.10,30.02,4,0,0,0.00
2013-7-27,64,58,55,56,54,53,95,88,74,30.04,29.89,3,0,0,0.00
2013-7-28,62,57,55,56,54,52,96,88,73,29.89,29.83,4,1,0,0.00
2013-7-29,69,59,56,56,53,52,89,80,63,30.02,29.85,3,1,0,0.00
2013-7-30,68,59,55,55,53,52,91,80,63,30.10,30.02,5,0,0,0.00
2013-7-31,68,60,54,55,53,52,92,78,60,30.09,30.01,5,1,0,0.00
2013-8-1,69,61,55,54,53,52,88,74,57,30.07,29.96,6,1,0,0.00
2013-8-2,70,60,54,55,53,50,91,77,57,29.98,29.92,6,0,0,0.00
2013-8-3,68,59,54,55,53,51,92,81,63,29.98,29.93,5,1,0,0.00
2013-8-4,66,58,54,54,53,52,92,83,63,30.01,29.96,6,1,0,0.00
2013-8-5,66,59,54,54,52,51,91,81,64,30.03,29.96,5,1,0,0.00
2013-8-6,67,59,54,56,53,52,91,81,61,30.05,29.98,4,0,0,0.00
2013-8-7,70,61,57,57,55,53,92,81,60,30.10,30.04,3,0,0,0.00
2013-8-8,71,61,57,58,56,52,94,82,54,30.04,29.95,4,0,0,0.02
2013-8-9,69,60,55,56,54,52,94,82,61,30.00,29.92,5,1,0,0.00
2013-8-10,70,62,57,58,55,54,90,79,60,30.05,29.99,5,1,0,0.00
2013-8-11,68,60,56,56,55,54,95,83,64,30.03,29.96,4,0,0,0.00
2013-8-12,70,61,57,57,55,54,90,80,60,30.00,29.95,3,0,0,0.00
2013-8-13,77,64,57,59,55,53,89,73,49,29.98,29.92,4,0,0,0.00
2013-8-14,75,64,57,60,56,53,91,76,53,29.98,29.92,4,1,0,0.00
2013-8-15,77,67,62,63,61,59,92,82,60,29.97,29.91,5,1,0,0.00
2013-8-16,77,66,60,61,59,56,94,79,51,30.00,29.94,4,0,0,0.00
2013-8-17,78,65,59,59,57,55,89,76,51,29.99,29.88,4,1,0,0.00
2013-8-18,77,66,59,60,58,56,92,76,53,29.89,29.79,3,0,0,0.00
2013-8-19,75,64,58,59,57,56,94,82,56,29.91,29.81,5,0,0,0.00
2013-8-20,71,62,59,58,57,55,94,83,63,29.91,29.85,4,0,0,0.00
2013-8-21,71,62,58,56,55,54,88,77,57,29.95,29.88,3,0,0,0.00
2013-8-22,70,62,57,55,54,53,91,76,57,29.98,29.90,4,0,0,0.00
2013-8-23,70,62,57,56,55,53,88,78,60,29.93,29.82,4,1,0,0.00
2013-8-24,72,63,58,58,56,54,90,79,58,29.90,29.84,4,1,0,0.00
2013-8-25,76,67,62,62,60,57,92,79,60,29.95,29.88,5,0,0,0.00
2013-8-26,74,65,60,59,57,55,93,76,53,30.01,29.91,3,0,0,0.00
2013-8-27,73,64,54,59,57,52,95,80,57,29.91,29.84,5,0,0,0.00
2013-8-28,75,66,60,62,60,57,92,81,62,29.95,29.85,3,0,0,0.00
2013-8-29,75,66,61,62,60,59,94,82,62,30.07,29.95,3,0,0,0.00
2013-8-30,84,70,60,63,60,58,95,75,46,30.04,29.93,3,0,0,0.00
2013-8-31,73,64,57,60,58,55,95,81,60,29.98,29.91,4,0,0,0.00
2013-9-1,72,65,59,61,58,55,90,79,61,29.95,29.89,2,0,0,0.00
2013-9-2,76,67,62,62,61,59,93,82,60,29.96,29.89,3,0,0,0.00
2013-9-3,75,66,58,61,59,55,95,79,53,30.00,29.93,4,0,0,0.00
2013-9-4,78,67,58,60,58,56,94,75,50,30.03,29.94,3,0,0,0.00
2013-9-5,80,68,58,59,56,53,92,69,40,30.01,29.95,4,0,0,0.00
2013-9-6,88,70,55,59,54,46,93,61,27,29.99,29.83,1,0,0,0.00
2013-9-7,88,70,58,57,52,49,91,56,28,29.88,29.82,2,0,0,0.00
2013-9-8,75,63,57,59,57,55,94,81,55,29.88,29.78,2,0,0,0.00
2013-9-9,75,63,56,59,57,54,95,81,52,29.82,29.73,3,0,0,0.00
2013-9-10,72,64,59,60,58,57,94,83,65,29.90,29.74,4,0,0,0.00
2013-9-11,74,66,62,60,58,57,86,76,57,29.99,29.90,4,0,0,0.00
2013-9-12,73,64,60,60,59,57,94,83,61,29.98,29.90,3,0,0,0.00
2013-9-13,73,63,58,58,56,54,92,79,58,29.91,29.77,4,1,0,0.00
2013-9-14,73,62,56,58,55,54,92,81,58,29.82,29.75,7,1,0,0.00
2013-9-15,75,64,57,60,56,53,91,75,52,29.86,29.77,4,1,0,0.00
2013-9-16,79,66,60,60,58,55,92,76,46,29.89,29.79,3,0,0,0.00
2013-9-17,78,65,57,57,54,50,92,69,39,29.88,29.82,3,0,0,0.00
2013-9-18,79,65,54,55,50,46,85,63,33,29.90,29.83,2,0,0,0.00
2013-9-19,80,64,52,57,52,48,90,67,35,29.85,29.76,2,0,0,0.00
2013-9-20,72,62,52,61,56,49,94,82,67,29.85,29.77,3,0,0,0.00
2013-9-21,68,63,56,62,58,53,95,84,72,29.89,29.80,4,0,0,0.58
2013-9-22,72,62,53,57,53,51,97,76,49,30.00,29.89,4,0,0,0.00
2013-9-23,80,65,54,60,55,50,92,72,42,30.01,29.93,2,0,0,0.00
2013-9-24,77,64,55,59,53,46,95,72,39,29.99,29.91,4,0,0,0.00
2013-9-25,74,61,52,48,46,42,83,59,35,29.93,29.82,4,0,0,0.00
2013-9-26,75,61,49,50,42,35,82,54,25,29.98,29.84,3,0,0,0.00
2013-9-27,78,63,51,46,40,34,70,47,24,30.08,29.98,1,0,0,0.00
2013-9-28,80,64,51,55,45,37,86,55,22,30.09,30.01,2,0,0,0.00
2013-9-29,76,65,56,61,58,53,94,79,56,30.10,30.05,3,0,0,0.00
2013-9-30,74,65,55,63,60,46,95,85,64,30.07,29.98,3,0,0,0.00
2013-10-1,73,61,50,54,48,45,94,66,40,30.01,29.92,3,0,0,0.00
2013-10-2,74,61,52,55,49,41,91,67,39,30.01,29.92,2,0,0,0.00
2013-10-3,77,64,51,44,36,24,68,40,15,30.06,29.95,6,0,0,0.00
2013-10-4,82,69,56,34,27,22,38,22,11,30.08,29.96,5,1,0,0.00
2013-10-5,88,72,57,38,28,19,38,21,11,30.18,30.08,7,1,0,0.00
2013-10-6,88,67,52,44,36,29,59,35,12,30.10,29.99,2,0,0,0.00
2013-10-7,77,64,54,49,40,34,78,46,23,29.99,29.88,1,0,0,0.00
2013-10-8,72,58,49,53,48,44,90,71,37,29.90,29.71,2,0,0,0.00
2013-10-9,69,58,49,49,46,40,89,67,36,29.75,29.62,3,0,0,0.00
2013-10-10,66,56,49,51,49,46,90,78,57,30.01,29.75,2,0,0,0.00
2013-10-11,64,55,49,50,49,47,92,81,57,30.08,29.98,2,0,0,0.00
2013-10-12,64,54,47,52,48,45,96,82,61,30.00,29.90,3,0,0,0.00
2013-10-13,72,58,48,54,47,44,95,72,36,30.06,29.91,2,0,0,0.00
2013-10-14,81,62,48,49,41,33,85,53,18,30.10,30.00,3,0,0,0.00
2013-10-15,83,64,49,44,36,27,71,40,13,30.02,29.95,3,0,0,0.00
2013-10-16,85,64,51,47,38,32,72,42,15,30.07,29.98,3,0,0,0.00
2013-10-17,83,63,50,50,38,32,86,44,18,30.06,29.97,0,0,0,0.00
2013-10-18,71,57,48,54,49,46,96,78,50,30.04,29.98,0,0,0,0.00
2013-10-19,78,58,47,54,49,44,96,75,37,30.06,29.99,0,0,0,0.00
2013-10-20,66,55,49,53,50,48,96,83,58,30.03,29.92,0,0,0,0.00
2013-10-21,64,55,51,51,50,48,92,83,62,30.00,29.92,0,0,0,0.00
2013-10-22,66,55,50,53,50,48,96,86,60,30.01,29.93,3,0,0,0.00
2013-10-23,65,54,50,53,50,49,96,87,62,29.98,29.90,2,0,0,0.00
2013-10-24,62,54,50,49,48,47,91,82,62,30.09,29.96,3,0,0,0.00
2013-10-25,68,56,47,53,49,46,96,80,54,30.15,30.07,2,0,0,0.00
2013-10-26,74,57,48,56,50,46,97,80,46,30.13,30.01,0,0,0,0.00
2013-10-27,61,53,50,51,49,44,95,84,63,30.03,29.67,5,1,0,0.00
2013-10-28,63,54,46,50,46,43,95,77,50,29.83,29.66,6,0,0,0.00
2013-10-29,64,56,48,50,47,44,90,74,49,30.04,29.83,3,0,0,0.00
2013-10-30,68,54,46,52,46,40,96,78,46,30.14,30.04,2,0,0,0.00
2013-10-31,74,56,45,50,44,37,89,67,34,30.17,30.07,1,0,0,0.00
2013-11-1,79,61,48,49,44,41,86,60,27,30.12,30.00,2,0,0,0.00
2013-11-2,67,56,49,52,49,44,94,77,55,30.01,29.90,0,0,0,0.00
2013-11-3,66,54,46,47,38,30,91,58,27,30.04,29.91,0,0,0,0.00
2013-11-4,72,56,42,39,33,22,78,47,15,30.06,29.90,2,0,0,0.00
2013-11-5,74,59,48,39,34,29,60,42,23,30.21,30.04,2,0,0,0.00
2013-11-6,75,60,47,43,37,34,68,46,24,30.24,30.15,4,0,0,0.00
2013-11-7,74,60,50,48,42,36,83,55,28,30.15,30.07,1,0,0,0.00
2013-11-8,72,57,46,53,48,44,96,76,46,30.07,29.95,2,0,0,0.00
2013-11-9,72,55,45,52,48,44,96,79,41,30.05,29.96,2,0,0,0.00
2013-11-10,65,55,49,51,49,47,95,82,56,30.11,30.01,3,0,0,0.00
2013-11-11,65,56,48,52,49,46,94,79,61,30.15,30.06,2,0,0,0.00
2013-11-12,72,60,53,51,48,40,86,67,32,30.26,30.14,1,0,0,0.00
2013-11-13,72,57,49,54,51,47,95,82,50,30.24,30.10,2,0,0,0.00
2013-11-14,65,55,49,53,50,43,94,84,64,30.11,29.87,2,0,0,0.00
2013-11-15,66,53,44,46,41,38,87,67,39,29.86,29.73,2,0,0,0.00
2013-11-16,65,54,46,50,45,40,93,75,41,29.91,29.75,4,0,0,0.00
2013-11-17,63,54,47,50,47,44,93,80,51,30.08,29.91,5,0,0,0.00
2013-11-18,60,52,45,50,47,44,96,83,62,30.14,30.07,1,0,0,0.00
2013-11-19,60,56,52,56,52,46,96,85,69,30.09,29.92,4,0,0,0.62
2013-11-20,59,56,52,58,55,51,97,97,96,29.93,29.82,4,0,0,0.58
2013-11-21,65,56,49,51,36,17,97,57,21,29.96,29.88,6,1,0,0.04
2013-11-22,73,62,51,21,13,7,25,15,9,30.00,29.89,12,1,0,0.00
2013-11-23,68,57,50,47,29,19,92,40,17,30.09,29.93,13,1,0,0.00
2013-11-24,65,52,43,50,44,40,96,76,47,30.23,30.09,1,0,0,0.00
2013-11-25,69,52,43,46,41,39,92,69,37,30.31,30.23,2,0,0,0.00
2013-11-26,65,54,46,45,41,38,85,63,38,30.25,30.02,4,0,0,0.00
2013-11-27,67,56,46,47,43,39,88,63,44,30.01,29.83,5,0,0,0.00
2013-11-28,71,58,50,46,41,36,77,55,29,30.06,29.84,4,0,0,0.00
2013-11-29,69,54,46,48,44,39,85,69,39,30.20,30.06,2,0,0,0.00
2013-11-30,67,53,45,53,47,43,96,82,50,30.26,30.18,1,0,0,0.00
2013-12-1,73,54,45,51,45,41,95,74,32,30.32,30.21,2,0,0,0.00
2013-12-2,64,53,44,53,48,42,96,85,58,30.21,29.95,4,0,0,0.00
2013-12-3,57,50,41,53,36,26,93,60,35,29.95,29.84,4,0,0,0.00
2013-12-4,56,44,36,30,21,10,78,44,21,30.06,29.92,6,0,0,0.00
2013-12-5,53,41,32,30,20,10,75,46,21,30.15,30.06,3,0,0,0.00
2013-12-6,53,44,33,48,34,23,93,70,33,30.18,29.91,8,0,0,0.33
2013-12-7,51,42,35,46,32,24,93,70,36,30.24,29.91,3,0,0,0.01
2013-12-8,47,38,32,29,21,14,84,52,27,30.30,30.21,9,1,0,0.00
2013-12-9,52,40,30,24,15,10,59,38,19,30.40,30.30,9,1,0,0.00
2013-12-10,56,44,35,26,23,18,63,45,24,30.39,30.19,5,0,0,0.00
2013-12-11,58,46,36,33,25,19,68,47,25,30.22,30.15,15,1,0,0.00
2013-12-12,62,46,38,38,34,30,86,65,39,30.25,30.15,2,0,0,0.00
2013-12-13,59,46,39,45,39,35,95,76,51,30.33,30.21,1,0,0,0.00
2013-12-14,63,49,38,39,33,27,90,58,29,30.37,30.30,5,0,0,0.00
2013-12-15,67,51,40,41,33,27,87,53,27,30.35,30.22,5,0,0,0.00
2013-12-16,71,56,47,40,34,27,62,45,21,30.22,30.10,3,0,0,0.00
2013-12-17,68,53,45,43,38,33,71,59,38,30.16,30.01,2,0,0,0.00
2013-12-18,58,49,43,47,42,36,92,77,59,30.02,29.75,4,0,0,0.00
2013-12-19,64,51,44,45,29,12,93,49,23,29.93,29.71,4,0,0,0.00
2013-12-20,62,48,39,37,23,12,59,40,18,30.00,29.91,2,0,0,0.00
2013-12-21,64,51,43,47,42,30,92,74,45,30.07,29.95,2,0,0,0.00
2013-12-22,68,53,42,45,39,32,95,65,28,30.27,30.07,9,0,0,0.00
2013-12-23,66,52,42,41,38,36,84,61,34,30.37,30.26,4,0,0,0.00
2013-12-24,68,52,44,44,40,37,81,65,35,30.32,30.18,1,0,0,0.00
2013-12-25,68,55,44,39,36,29,71,51,29,30.26,30.17,7,0,0,0.00
2013-12-26,70,52,41,43,37,32,86,59,25,30.23,30.14,2,0,0,0.00
2013-12-27,62,50,42,43,37,33,79,62,46,30.21,30.11,2,0,0,0.00
2013-12-28,65,48,38,40,35,29,88,63,35,30.13,30.02,2,0,0,0.00
2013-12-29,67,56,44,30,21,14,57,28,15,30.16,30.07,10,2,0,0.00
2013-12-30,64,50,42,44,37,29,91,62,40,30.24,30.15,2,0,0,0.00
2013-12-31,63,48,41,45,39,33,93,73,34,30.26,30.14,2,0,0,0.00
2014-1-1,63,49,40,43,37,32,84,65,46,30.20,30.11,2,0,0,0.00
2014-1-2,70,53,41,38,35,32,76,55,25,30.16,30.04,3,0,0,0.00